Time;durP1;ratioP1;P1;durP2;ratioP2;P2;SDS_P1;SDS_P2;PMS_P1;PMS_P2;Temp;Humidity;BMP_temperature;BMP_pressure;BME280_temperature;BME280_humidity;BME280_pressure;Samples;Min_cycle;Max_cycle;Signal;HPM_P1;HPM_P2
2023/01/06 00:01:12;;;;;;;5.12;3.67;;;;;;;2.95;85.00;100795.33;1784267;78;25730;-78
2023/01/06 00:03:39;;;;;;;3.60;3.25;;;;;;;2.91;85.15;100788.12;1798124;77;25266;-80
2023/01/06 00:06:09;;;;;;;4.35;3.50;;;;;;;2.91;85.29;100795.22;1822174;77;25757;-80
2023/01/06 00:08:37;;;;;;;6.75;3.45;;;;;;;2.94;85.52;100794.96;1815376;78;33068;-82
2023/01/06 00:11:06;;;;;;;4.00;3.17;;;;;;;2.95;85.42;100799.30;1819745;77;27418;-80
2023/01/06 00:13:33;;;;;;;5.47;3.72;;;;;;;2.95;85.42;100800.11;1823967;78;25699;-81
2023/01/06 00:16:10;;;;;;;5.83;3.55;;;;;;;2.95;85.39;100803.27;1758294;80;25868;-78
2023/01/06 00:18:36;;;;;;;5.22;4.00;;;;;;;2.91;85.35;100810.61;1761200;80;26795;-81
2023/01/06 00:21:04;;;;;;;5.10;3.83;;;;;;;2.91;85.46;100811.09;1811583;78;25769;-79
2023/01/06 00:23:31;;;;;;;4.25;3.62;;;;;;;2.91;85.51;100814.58;1819184;77;27606;-80
2023/01/06 00:25:57;;;;;;;5.03;3.40;;;;;;;2.90;85.51;100816.89;1819747;78;25714;-81
2023/01/06 00:28:23;;;;;;;5.22;4.00;;;;;;;2.89;85.60;100815.67;1815415;78;25922;-79
2023/01/06 00:30:52;;;;;;;3.95;3.52;;;;;;;2.90;85.73;100830.12;1788111;79;27037;-79
2023/01/06 00:33:18;;;;;;;5.65;3.60;;;;;;;2.88;85.72;100837.35;1814121;77;25656;-80
2023/01/06 00:35:45;;;;;;;3.47;3.17;;;;;;;2.87;85.64;100841.43;1830735;77;27421;-79
2023/01/06 00:38:11;;;;;;;5.35;3.75;;;;;;;2.84;85.82;100829.81;1823302;77;25712;-80
2023/01/06 00:40:38;;;;;;;4.60;4.10;;;;;;;2.84;85.99;100831.98;1780846;80;25852;-82
2023/01/06 00:43:05;;;;;;;5.03;4.00;;;;;;;2.84;85.71;100834.63;1811235;78;25993;-80
2023/01/06 00:45:32;;;;;;;6.67;4.25;;;;;;;2.82;85.61;100845.79;1819028;78;25826;-79
2023/01/06 00:47:58;;;;;;;5.42;4.00;;;;;;;2.81;85.80;100856.51;1822679;78;28274;-79
2023/01/06 00:50:25;;;;;;;4.90;3.90;;;;;;;2.82;85.88;100854.23;1834362;77;25803;-81
2023/01/06 00:52:51;;;;;;;4.92;3.80;;;;;;;2.83;85.94;100865.16;1832206;77;26406;-80
2023/01/06 00:55:17;;;;;;;5.90;4.50;;;;;;;2.84;86.04;100870.33;1814534;78;25758;-79
2023/01/06 00:57:43;;;;;;;6.05;4.42;;;;;;;2.86;86.06;100878.13;1797447;78;26315;-79
2023/01/06 01:00:12;;;;;;;4.72;4.17;;;;;;;2.87;86.08;100871.37;1789675;79;27450;-79
2023/01/06 01:02:39;;;;;;;6.17;4.65;;;;;;;2.92;86.30;100870.51;1780659;80;25947;-83
2023/01/06 01:05:06;;;;;;;7.53;5.17;;;;;;;2.93;86.12;100870.84;1812555;78;26181;-80
2023/01/06 01:07:32;;;;;;;7.10;4.78;;;;;;;2.92;85.97;100878.92;1824783;77;26577;-79
2023/01/06 01:09:58;;;;;;;5.78;5.20;;;;;;;2.92;85.99;100881.56;1806956;78;26538;-79
2023/01/06 01:12:25;;;;;;;6.90;4.72;;;;;;;2.91;86.01;100884.69;1795706;77;27410;-79
2023/01/06 01:14:53;;;;;;;5.90;4.83;;;;;;;2.91;86.05;100894.43;1790148;78;25768;-82
2023/01/06 01:17:23;;;;;;;5.75;4.35;;;;;;;2.91;86.14;100897.08;1812972;78;25741;-80
2023/01/06 01:19:53;;;;;;;7.10;4.60;;;;;;;2.91;86.04;100911.15;1831191;78;26546;-79
2023/01/06 01:22:19;;;;;;;7.08;4.90;;;;;;;2.90;86.08;100920.55;1807860;77;25787;-80
2023/01/06 01:24:45;;;;;;;7.53;5.47;;;;;;;2.88;86.16;100914.55;1826106;78;28279;-80
2023/01/06 01:27:12;;;;;;;5.83;5.22;;;;;;;2.87;86.29;100920.32;1811090;78;25738;-78
2023/01/06 01:29:38;;;;;;;6.75;4.97;;;;;;;2.87;86.20;100922.12;1821601;78;25739;-80
2023/01/06 01:32:05;;;;;;;5.45;4.70;;;;;;;2.85;86.28;100931.99;1816316;78;25759;-80
2023/01/06 01:34:32;;;;;;;5.90;5.12;;;;;;;2.83;86.33;100931.28;1817246;78;26352;-80
2023/01/06 01:36:58;;;;;;;4.95;4.35;;;;;;;2.84;86.45;100943.08;1836331;77;27098;-80
2023/01/06 01:39:27;;;;;;;6.40;4.85;;;;;;;2.84;86.43;100947.05;1815329;77;25764;-80
2023/01/06 01:41:55;;;;;;;5.45;4.95;;;;;;;2.82;86.50;100952.11;1821706;77;25757;-81
2023/01/06 01:44:50;;;;;;;5.65;5.05;;;;;;;2.81;86.52;100953.06;1828636;77;26568;-80
2023/01/06 01:47:56;;;;;;;6.25;4.92;;;;;;;2.79;86.64;100959.81;1825011;78;25901;-78
2023/01/06 01:50:41;;;;;;;5.95;5.33;;;;;;;2.80;86.68;100965.95;1823696;78;28227;-79
2023/01/06 01:53:12;;;;;;;5.75;4.87;;;;;;;2.79;86.74;100972.19;1827758;78;26380;-81
2023/01/06 01:55:39;;;;;;;5.67;4.70;;;;;;;2.80;86.76;100976.53;1825992;78;25817;-79
2023/01/06 01:58:23;;;;;;;6.45;5.33;;;;;;;2.82;86.86;100972.77;1792595;79;25791;-80
2023/01/06 02:00:51;;;;;;;7.42;4.95;;;;;;;2.87;87.05;100977.20;1757012;79;25824;-81
2023/01/06 02:03:21;;;;;;;5.67;4.80;;;;;;;2.88;86.84;100992.59;1775499;80;28393;-78
2023/01/06 02:05:52;;;;;;;5.90;4.57;;;;;;;2.88;86.83;101002.70;1787947;79;26371;-79
2023/01/06 02:08:36;;;;;;;5.75;4.62;;;;;;;2.89;86.90;101005.69;1774598;79;25723;-80
2023/01/06 02:11:04;;;;;;;5.85;4.90;;;;;;;2.87;86.79;101006.30;1766278;79;26386;-79
2023/01/06 02:13:37;;;;;;;7.70;5.15;;;;;;;2.84;86.66;101006.58;1826444;77;25748;-77
2023/01/06 02:16:31;;;;;;;5.87;4.97;;;;;;;2.81;86.51;101011.26;1826972;77;27440;-79
2023/01/06 02:19:24;;;;;;;6.37;5.35;;;;;;;2.77;86.68;101010.69;1832838;77;25936;-80
2023/01/06 02:22:17;;;;;;;5.12;4.62;;;;;;;2.77;86.66;101014.66;1788448;77;25786;-79
2023/01/06 02:25:07;;;;;;;6.85;5.35;;;;;;;2.72;86.42;101014.18;1818000;77;26405;-81
2023/01/06 02:27:58;;;;;;;5.47;4.62;;;;;;;2.71;86.61;101018.28;1819731;78;32470;-78
2023/01/06 02:31:03;;;;;;;5.20;4.62;;;;;;;2.69;86.65;101021.55;1773835;78;27522;-77
2023/01/06 02:33:34;;;;;;;5.58;5.03;;;;;;;2.67;86.65;101028.77;1656675;85;26149;-79
2023/01/06 02:36:28;;;;;;;9.20;5.75;;;;;;;2.61;86.41;101030.09;1784217;78;26356;-79
2023/01/06 02:39:12;;;;;;;6.60;4.85;;;;;;;2.61;86.55;101036.70;1782973;79;25849;-79
2023/01/06 02:42:09;;;;;;;6.70;5.17;;;;;;;2.60;86.51;101047.41;1777976;79;26457;-77
2023/01/06 02:45:10;;;;;;;5.08;4.28;;;;;;;2.58;86.56;101044.91;1794487;78;28669;-80
2023/01/06 02:47:42;;;;;;;6.37;4.75;;;;;;;2.61;86.62;101056.53;1775539;79;26047;-80
2023/01/06 02:50:35;;;;;;;6.50;5.50;;;;;;;2.60;86.60;101047.41;1793462;78;25824;-79
2023/01/06 02:53:27;;;;;;;5.05;4.22;;;;;;;2.60;86.60;101052.70;1787995;79;26101;-80
2023/01/06 02:55:56;;;;;;;6.78;4.70;;;;;;;2.61;86.74;101064.47;1812643;77;26339;-79
2023/01/06 02:58:57;;;;;;;6.33;5.08;;;;;;;2.63;86.80;101061.21;1828465;78;27460;-80
2023/01/06 03:01:31;;;;;;;5.70;4.92;;;;;;;2.62;86.64;101067.95;1831462;77;26554;-79
2023/01/06 03:04:02;;;;;;;5.83;5.00;;;;;;;2.58;86.48;101073.98;1807694;78;25817;-79
2023/01/06 03:06:31;;;;;;;5.90;4.83;;;;;;;2.56;86.30;101073.75;1823391;77;25818;-78
2023/01/06 03:09:01;;;;;;;5.17;4.67;;;;;;;2.53;86.25;101078.80;1777929;79;25802;-78
2023/01/06 03:11:31;;;;;;;6.55;4.92;;;;;;;2.52;86.08;101074.48;1766996;79;28688;-80
2023/01/06 03:14:15;;;;;;;5.43;4.80;;;;;;;2.50;86.00;101076.42;1752160;80;25804;-78
2023/01/06 03:16:42;;;;;;;5.62;4.58;;;;;;;2.49;85.77;101076.52;1815094;77;25733;-80
2023/01/06 03:19:09;;;;;;;5.83;5.05;;;;;;;2.47;85.67;101085.06;1821919;77;25794;-79
2023/01/06 03:21:40;;;;;;;4.90;4.28;;;;;;;2.43;85.78;101084.48;1790827;78;25749;-79
2023/01/06 03:24:09;;;;;;;5.12;4.42;;;;;;;2.42;85.80;101090.71;1830829;78;28280;-80
2023/01/06 03:26:37;;;;;;;6.03;4.95;;;;;;;2.41;85.75;101086.41;1819703;77;25619;-78
2023/01/06 03:29:12;;;;;;;5.03;4.62;;;;;;;2.43;85.76;101097.70;1817727;78;25679;-79
2023/01/06 03:31:48;;;;;;;7.47;5.37;;;;;;;2.44;85.61;101094.58;1821022;78;25773;-79
2023/01/06 03:34:32;;;;;;;6.08;4.80;;;;;;;2.44;85.67;101098.55;1816308;78;25750;-78
2023/01/06 03:37:26;;;;;;;5.60;4.78;;;;;;;2.46;85.77;101105.88;1753747;80;27503;-79
2023/01/06 03:40:01;;;;;;;5.53;4.55;;;;;;;2.48;85.77;101107.91;1729496;80;25852;-80
2023/01/06 03:43:11;;;;;;;5.33;4.37;;;;;;;2.47;85.55;101114.98;1823540;78;25980;-79
2023/01/06 03:45:51;;;;;;;7.35;5.00;;;;;;;2.47;85.44;101115.47;1823611;78;25855;-80
2023/01/06 03:48:40;;;;;;;5.78;4.17;;;;;;;2.48;85.55;101114.01;1817825;78;25914;-78
2023/01/06 03:51:25;;;;;;;5.65;4.20;;;;;;;2.50;85.54;101121.37;1783646;79;28298;-80
2023/01/06 03:54:15;;;;;;;5.25;4.20;;;;;;;2.52;85.46;101115.48;1799628;78;26316;-79
2023/01/06 03:56:48;;;;;;;6.60;4.85;;;;;;;2.54;85.46;101119.31;1829209;78;25709;-80
2023/01/06 03:59:21;;;;;;;5.55;4.55;;;;;;;2.55;85.54;101123.62;1819055;78;26535;-80
2023/01/06 04:01:49;;;;;;;5.15;4.00;;;;;;;2.55;85.46;101132.88;1823641;78;26056;-81
2023/01/06 04:04:17;;;;;;;6.00;4.78;;;;;;;2.52;85.24;101131.81;1816773;78;27434;-79
2023/01/06 04:06:45;;;;;;;6.25;5.60;;;;;;;2.44;85.11;101129.77;1819089;78;25739;-81
2023/01/06 04:09:12;;;;;;;5.40;4.90;;;;;;;2.44;85.09;101130.27;1822729;78;25295;-78
2023/01/06 04:14:25;;;;;;;7.28;5.58;;;;;;;2.35;84.87;101134.48;1813041;78;25804;-80
2023/01/06 04:16:52;;;;;;;7.28;5.80;;;;;;;2.34;84.84;101149.50;1791759;79;28242;-78
2023/01/06 04:19:19;;;;;;;5.70;5.15;;;;;;;2.30;84.62;101141.92;1814318;77;25797;-80
2023/01/06 04:21:46;;;;;;;6.58;4.92;;;;;;;2.28;84.65;101147.81;1817947;78;25212;-79
2023/01/06 04:24:12;;;;;;;5.90;5.00;;;;;;;2.28;84.56;101154.42;1811237;78;25912;-79
2023/01/06 04:26:38;;;;;;;7.08;5.40;;;;;;;2.25;84.19;101158.61;1823696;77;26457;-80
2023/01/06 04:29:05;;;;;;;6.00;5.40;;;;;;;2.22;84.35;101157.05;1827741;78;27604;-81
2023/01/06 04:31:32;;;;;;;5.95;5.35;;;;;;;2.24;84.27;101155.63;1834383;77;25752;-79
2023/01/06 04:33:59;;;;;;;6.15;5.53;;;;;;;2.24;84.10;101163.55;1805954;78;25777;-81
2023/01/06 04:36:25;;;;;;;6.90;5.20;;;;;;;2.22;83.62;101168.13;1829503;77;26571;-79
2023/01/06 04:38:53;;;;;;;6.15;4.58;;;;;;;2.18;83.54;101168.00;1827389;78;25920;-79
2023/01/06 04:41:19;;;;;;;6.08;5.08;;;;;;;2.17;83.44;101168.48;1822061;77;28229;-80
2023/01/06 04:43:46;;;;;;;5.10;4.30;;;;;;;2.14;83.32;101162.56;1829206;78;25321;-78
2023/01/06 04:46:12;;;;;;;6.05;5.20;;;;;;;2.08;82.82;101171.83;1810742;78;25820;-80
2023/01/06 04:48:38;;;;;;;7.28;5.20;;;;;;;2.02;83.01;101163.05;1814494;77;26988;-79
2023/01/06 04:51:08;;;;;;;8.03;4.90;;;;;;;2.01;82.94;101158.72;1818897;78;25850;-80
2023/01/06 04:53:38;;;;;;;5.05;4.45;;;;;;;1.99;82.75;101161.14;1814129;78;27452;-78
2023/01/06 04:56:07;;;;;;;6.72;5.25;;;;;;;1.94;82.95;101170.73;1806294;78;25726;-78
2023/01/06 04:58:34;;;;;;;5.55;5.03;;;;;;;1.98;83.24;101167.38;1832603;78;26408;-77
2023/01/06 05:01:08;;;;;;;5.05;4.22;;;;;;;1.97;83.20;101170.95;1792214;79;26370;-77
2023/01/06 05:03:34;;;;;;;9.03;5.28;;;;;;;1.99;83.18;101167.75;1817695;77;26389;-79
2023/01/06 05:06:11;;;;;;;6.83;5.35;;;;;;;1.99;83.16;101170.39;1792866;79;27518;-77
2023/01/06 05:08:41;;;;;;;5.45;4.78;;;;;;;1.99;83.27;101171.70;1833930;77;26332;-78
2023/01/06 05:11:11;;;;;;;;;;;;;;;1.98;83.24;101170.86;1840054;77;25773;-80
2023/01/06 05:13:38;;;;;;;6.53;4.80;;;;;;;1.94;83.02;101173.85;1832944;77;26548;-78
2023/01/06 05:16:07;;;;;;;6.25;5.33;;;;;;;1.81;82.76;101163.86;1826284;77;26534;-80
2023/01/06 05:18:34;;;;;;;5.80;4.53;;;;;;;1.76;82.75;101168.64;1824279;78;27420;-81
2023/01/06 05:21:01;;;;;;;6.25;4.35;;;;;;;1.70;82.88;101166.47;1816629;77;25853;-80
2023/01/06 05:23:27;;;;;;;6.67;4.70;;;;;;;1.67;83.15;101165.40;1781388;79;25666;-80
2023/01/06 05:25:54;;;;;;;6.00;5.40;;;;;;;1.65;83.17;101169.95;1820019;77;25775;-80
2023/01/06 05:28:21;;;;;;;5.17;4.50;;;;;;;1.63;83.27;101170.52;1817607;78;25745;-79
2023/01/06 05:30:47;;;;;;;5.85;4.72;;;;;;;1.63;83.41;101171.38;1828371;78;27464;-80
2023/01/06 05:33:14;;;;;;;5.60;5.03;;;;;;;1.65;83.42;101176.05;1830067;77;25782;-79
2023/01/06 05:35:40;;;;;;;5.85;4.40;;;;;;;1.66;83.34;101177.75;1811433;77;25294;-79
2023/01/06 05:38:07;;;;;;;5.95;5.00;;;;;;;1.64;83.14;101174.86;1817839;78;25908;-81
2023/01/06 05:40:34;;;;;;;6.85;4.78;;;;;;;1.61;83.04;101175.92;1817814;78;25725;-80
2023/01/06 05:43:01;;;;;;;7.08;5.40;;;;;;;1.61;83.23;101178.56;1823726;78;27449;-80
2023/01/06 05:45:27;;;;;;;6.58;4.53;;;;;;;1.64;83.22;101186.74;1822773;78;26296;-80
2023/01/06 05:47:53;;;;;;;6.30;5.10;;;;;;;1.65;83.29;101184.48;1831386;78;25689;-79
2023/01/06 05:50:19;;;;;;;6.65;4.67;;;;;;;1.66;83.22;101187.00;1777454;79;26336;-79
2023/01/06 05:52:47;;;;;;;6.00;4.53;;;;;;;1.67;83.25;101195.77;1808270;78;25731;-79
2023/01/06 05:55:14;;;;;;;5.58;4.75;;;;;;;1.69;83.27;101192.03;1821256;77;27495;-80
2023/01/06 05:57:40;;;;;;;5.95;4.83;;;;;;;1.70;83.28;101199.48;1823524;78;26306;-78
2023/01/06 06:00:08;;;;;;;5.78;4.80;;;;;;;1.76;83.59;101211.74;1821534;78;25748;-80
2023/01/06 06:02:41;;;;;;;5.35;4.70;;;;;;;1.82;83.54;101215.23;1786325;79;25853;-81
2023/01/06 06:05:07;;;;;;;4.90;4.40;;;;;;;1.88;83.58;101217.41;1773707;80;25778;-80
2023/01/06 06:07:34;;;;;;;5.67;4.75;;;;;;;1.95;83.71;101218.64;1784981;80;28421;-81
2023/01/06 06:10:00;;;;;;;8.05;4.83;;;;;;;2.02;83.64;101220.33;1774344;80;25808;-80
2023/01/06 06:12:27;;;;;;;4.50;4.03;;;;;;;2.08;83.50;101222.50;1787441;78;25813;-80
2023/01/06 06:14:53;;;;;;;4.85;4.35;;;;;;;2.10;83.27;101216.14;1780067;80;26475;-80
2023/01/06 06:17:19;;;;;;;5.15;4.65;;;;;;;2.15;83.33;101218.44;1780809;78;25892;-80
2023/01/06 06:19:46;;;;;;;4.47;4.08;;;;;;;2.20;83.32;101221.08;1754523;80;27496;-81
2023/01/06 06:22:12;;;;;;;4.97;4.40;;;;;;;2.22;83.02;101226.27;1781340;78;25840;-81
2023/01/06 06:24:38;;;;;;;5.03;3.98;;;;;;;2.19;82.72;101229.13;1754853;80;26090;-80
2023/01/06 06:27:05;;;;;;;7.08;4.58;;;;;;;2.21;82.84;101237.78;1781670;79;25753;-79
2023/01/06 06:29:31;;;;;;;5.67;4.70;;;;;;;2.24;83.00;101238.41;1790903;79;25904;-79
2023/01/06 06:31:57;;;;;;;5.75;4.42;;;;;;;2.28;82.85;101232.39;1761163;80;28141;-79
2023/01/06 06:34:24;;;;;;;9.10;4.90;;;;;;;2.28;82.47;101229.75;1782882;78;26393;-78
2023/01/06 06:36:50;;;;;;;7.83;4.78;;;;;;;2.28;82.55;101234.56;1837035;77;25747;-80
2023/01/06 06:39:16;;;;;;;7.05;4.50;;;;;;;2.31;82.76;101240.07;1807547;78;25786;-79
2023/01/06 06:41:43;;;;;;;5.80;4.75;;;;;;;2.32;82.62;101242.62;1812124;77;25918;-80
2023/01/06 06:44:09;;;;;;;5.00;4.20;;;;;;;2.32;82.72;101253.19;1813558;77;27448;-80
2023/01/06 06:46:35;;;;;;;6.17;3.98;;;;;;;2.37;82.77;101252.84;1808077;78;25273;-80
2023/01/06 06:49:02;;;;;;;6.03;4.60;;;;;;;2.43;82.79;101255.48;1819775;78;25840;-80
2023/01/06 06:51:30;;;;;;;6.28;5.00;;;;;;;2.45;82.72;101253.55;1831260;77;26577;-78
2023/01/06 06:53:56;;;;;;;4.78;4.30;;;;;;;2.48;82.70;101257.30;1817017;77;25793;-79
2023/01/06 06:56:23;;;;;;;5.37;4.62;;;;;;;2.47;82.41;101252.48;1765587;80;27973;-79
2023/01/06 06:58:49;;;;;;;6.10;4.83;;;;;;;2.46;82.58;101253.42;1787602;79;25530;-81
2023/01/06 07:01:18;;;;;;;5.33;4.83;;;;;;;2.48;82.42;101257.30;1745450;80;25839;-80
2023/01/06 07:03:45;;;;;;;5.47;4.28;;;;;;;2.49;82.43;101268.22;1823103;77;26575;-81
2023/01/06 07:06:16;;;;;;;8.63;5.15;;;;;;;2.51;82.54;101263.17;1821539;77;26279;-80
2023/01/06 07:08:45;;;;;;;4.50;3.55;;;;;;;2.54;82.48;101261.63;1829051;77;27532;-81
2023/01/06 07:11:12;;;;;;;5.33;4.40;;;;;;;2.56;82.45;101263.67;1810442;78;26408;-81
2023/01/06 07:13:38;;;;;;;6.12;4.70;;;;;;;2.57;82.61;101261.38;1805351;78;25296;-80
2023/01/06 07:16:06;;;;;;;5.55;4.40;;;;;;;2.61;82.46;101268.61;1829220;78;25924;-80
2023/01/06 07:18:33;;;;;;;6.58;5.00;;;;;;;2.60;82.18;101266.44;1831887;77;25785;-79
2023/01/06 07:20:59;;;;;;;10.40;6.05;;;;;;;2.64;82.29;101259.09;1826917;77;27448;-80
2023/01/06 07:23:25;;;;;;;6.97;5.33;;;;;;;2.66;82.30;101263.78;1792112;79;26016;-80
2023/01/06 07:25:54;;;;;;;4.75;3.98;;;;;;;2.68;82.47;101258.73;1826671;77;25907;-79
2023/01/06 07:28:21;;;;;;;7.95;5.15;;;;;;;2.73;82.26;101267.63;1818699;77;25706;-79
2023/01/06 07:30:47;;;;;;;4.80;4.40;;;;;;;2.74;82.09;101266.66;1820291;78;25784;-82
2023/01/06 07:33:14;;;;;;;7.15;6.17;;;;;;;2.75;82.17;101273.64;1783361;79;27465;-79
2023/01/06 07:35:40;;;;;;;7.50;6.65;;;;;;;2.77;82.26;101280.51;1818354;77;26405;-79
2023/01/06 07:38:07;;;;;;;7.62;6.08;;;;;;;2.78;82.25;101290.11;1819979;78;25890;-78
2023/01/06 07:40:35;;;;;;;8.40;6.20;;;;;;;2.81;82.40;101286.38;1829127;78;25941;-79
2023/01/06 07:43:06;;;;;;;7.22;6.28;;;;;;;2.84;82.40;101289.66;1824902;78;25789;-81
2023/01/06 07:45:33;;;;;;;9.00;5.78;;;;;;;2.88;82.39;101291.56;1826889;78;27520;-80
2023/01/06 07:47:59;;;;;;;7.30;5.37;;;;;;;2.89;81.98;101286.62;1796460;78;25763;-79
2023/01/06 07:50:27;;;;;;;6.35;5.47;;;;;;;2.89;81.54;101290.11;1823918;77;25751;-80
2023/01/06 07:53:00;;;;;;;6.80;5.30;;;;;;;2.90;81.49;101288.31;1813632;78;26555;-78
2023/01/06 07:55:26;;;;;;;6.87;4.97;;;;;;;2.91;81.64;101283.37;1823776;77;25920;-81
2023/01/06 07:57:53;;;;;;;5.12;4.62;;;;;;;2.94;81.54;101280.49;1819754;78;28722;-80
2023/01/06 08:00:20;;;;;;;5.53;4.97;;;;;;;2.94;81.36;101285.78;1791566;79;25327;-80
2023/01/06 08:02:47;;;;;;;6.00;5.20;;;;;;;2.94;81.08;101280.02;1792851;78;25727;-80
2023/01/06 08:05:13;;;;;;;6.00;4.90;;;;;;;2.91;81.16;101278.92;1791740;79;25823;-79
2023/01/06 08:07:39;;;;;;;7.33;4.85;;;;;;;2.91;81.18;101285.54;1792079;79;25914;-79
2023/01/06 08:10:07;;;;;;;5.28;4.78;;;;;;;2.92;81.28;101292.53;1785663;78;27603;-79
2023/01/06 08:12:33;;;;;;;5.80;4.17;;;;;;;2.91;80.94;101296.12;1796095;78;25945;-79
2023/01/06 08:14:59;;;;;;;5.58;4.55;;;;;;;2.88;81.15;101286.27;1792591;78;25707;-80
2023/01/06 08:17:26;;;;;;;5.67;4.30;;;;;;;2.86;81.08;101285.55;1786132;79;25759;-80
2023/01/06 08:19:52;;;;;;;5.92;4.20;;;;;;;2.82;80.87;101288.09;1778243;79;25953;-80
2023/01/06 08:22:18;;;;;;;6.80;4.40;;;;;;;2.78;81.00;101292.75;1779068;78;28359;-79
2023/01/06 08:24:44;;;;;;;5.58;4.37;;;;;;;2.75;81.08;101293.48;1752653;80;25701;-79
2023/01/06 08:27:11;;;;;;;6.25;4.60;;;;;;;2.72;81.14;101297.20;1768547;79;26429;-80
2023/01/06 08:29:37;;;;;;;5.72;4.65;;;;;;;2.72;81.20;101309.58;1772136;79;25891;-80
2023/01/06 08:32:03;;;;;;;7.22;4.60;;;;;;;2.68;80.97;101298.41;1819243;78;25906;-80
2023/01/06 08:34:30;;;;;;;5.22;4.30;;;;;;;2.66;81.15;101305.63;1767987;79;28287;-79
2023/01/06 08:36:56;;;;;;;5.15;4.20;;;;;;;2.64;80.96;101306.70;1764415;79;25755;-80
2023/01/06 08:39:22;;;;;;;6.17;4.60;;;;;;;2.60;80.84;101315.36;1822483;78;25270;-78
2023/01/06 08:41:50;;;;;;;4.22;3.80;;;;;;;2.54;80.66;101311.87;1809582;77;25898;-80
2023/01/06 08:44:17;;;;;;;6.28;4.47;;;;;;;2.51;80.76;101306.80;1828485;78;26388;-80
2023/01/06 08:46:44;;;;;;;4.92;4.30;;;;;;;2.51;80.60;101313.41;1831845;77;27516;-80
2023/01/06 08:49:10;;;;;;;4.35;3.95;;;;;;;2.45;80.36;101311.72;1782390;80;26402;-79
2023/01/06 08:51:37;;;;;;;7.10;4.10;;;;;;;2.40;80.19;101315.19;1779663;80;25954;-79
2023/01/06 08:54:03;;;;;;;6.12;4.42;;;;;;;2.39;80.57;101315.69;1791814;79;25777;-78
2023/01/06 08:56:31;;;;;;;4.85;4.15;;;;;;;2.41;80.68;101319.53;1827513;77;26437;-80
2023/01/06 08:59:01;;;;;;;5.03;3.83;;;;;;;2.41;80.70;101315.09;1827889;77;28249;-80
2023/01/06 09:01:35;;;;;;;6.73;4.00;;;;;;;2.41;80.68;101309.80;1828998;78;25848;-82
2023/01/06 09:04:05;;;;;;;5.12;4.03;;;;;;;2.41;80.93;101309.80;1833828;77;25776;-79
2023/01/06 09:06:33;;;;;;;5.33;4.05;;;;;;;2.44;80.91;101307.41;1784845;79;26495;-78
2023/01/06 09:09:00;;;;;;;5.22;3.98;;;;;;;2.41;80.76;101305.84;1786358;78;25724;-80
2023/01/06 09:11:26;;;;;;;6.62;4.10;;;;;;;2.43;81.03;101307.87;1819815;77;27516;-81
2023/01/06 09:13:53;;;;;;;7.25;4.25;;;;;;;2.45;80.79;101315.22;1831609;77;26169;-78
2023/01/06 09:16:20;;;;;;;6.05;4.25;;;;;;;2.44;80.54;101317.98;1826707;77;25966;-80
2023/01/06 09:18:48;;;;;;;4.47;4.08;;;;;;;2.40;80.44;101317.36;1826778;77;25815;-79
2023/01/06 09:21:18;;;;;;;6.15;4.55;;;;;;;2.44;80.94;101320.63;1811415;78;25827;-80
2023/01/06 09:23:45;;;;;;;4.42;3.98;;;;;;;2.48;80.95;101322.08;1824266;77;27681;-80
2023/01/06 09:26:12;;;;;;;5.65;4.20;;;;;;;2.53;80.89;101325.19;1830844;77;25856;-80
2023/01/06 09:28:39;;;;;;;5.83;3.90;;;;;;;2.56;80.98;101321.85;1768821;79;25793;-82
2023/01/06 09:31:07;;;;;;;4.92;4.12;;;;;;;2.60;81.04;101323.30;1766307;79;26582;-80
2023/01/06 09:33:34;;;;;;;5.65;4.20;;;;;;;2.63;80.98;101323.04;1772423;78;26130;-78
2023/01/06 09:36:00;;;;;;;5.87;4.50;;;;;;;2.64;80.76;101330.50;1774473;79;27467;-80
2023/01/06 09:38:27;;;;;;;5.45;4.33;;;;;;;2.64;80.70;101323.42;1805849;78;25758;-78
2023/01/06 09:41:03;;;;;;;5.75;4.42;;;;;;;2.64;80.32;101315.95;1817070;78;26381;-79
2023/01/06 09:43:56;;;;;;;5.10;4.37;;;;;;;2.63;80.13;101311.64;1824594;77;25944;-79
2023/01/06 09:46:30;;;;;;;5.15;4.40;;;;;;;2.62;80.18;101305.50;1816095;78;25901;-81
2023/01/06 09:49:20;;;;;;;4.87;4.37;;;;;;;2.66;80.41;101316.20;1801386;78;28291;-80
2023/01/06 09:51:47;;;;;;;5.13;4.13;;;;;;;2.70;80.46;101312.36;1806381;78;26008;-78
2023/01/06 09:54:30;;;;;;;4.80;4.05;;;;;;;2.70;80.41;101315.47;1762258;79;25540;-78
2023/01/06 09:57:20;;;;;;;4.95;4.47;;;;;;;2.68;80.35;101304.17;1816227;78;25915;-79
2023/01/06 09:59:57;;;;;;;6.22;4.97;;;;;;;2.71;80.51;101304.80;1805136;78;26292;-80
2023/01/06 10:02:37;;;;;;;5.33;4.67;;;;;;;2.75;80.66;101306.23;1806462;77;28241;-79
2023/01/06 10:05:18;;;;;;;5.28;4.45;;;;;;;2.79;80.57;101301.06;1775440;79;25712;-78
2023/01/06 10:07:50;;;;;;;4.95;4.25;;;;;;;2.81;80.32;101304.43;1775306;78;25834;-78
2023/01/06 10:10:30;;;;;;;5.87;4.58;;;;;;;2.84;80.35;101298.06;1786449;79;26459;-76
2023/01/06 10:13:10;;;;;;;7.80;5.33;;;;;;;2.86;80.40;101299.63;1784851;79;26463;-79
2023/01/06 10:16:00;;;;;;;5.72;4.50;;;;;;;2.88;80.34;101302.15;1783518;79;28500;-78
2023/01/06 10:18:43;;;;;;;6.97;5.40;;;;;;;2.91;80.31;101306.70;1783006;79;26387;-80
2023/01/06 10:21:42;;;;;;;12.65;6.55;;;;;;;2.95;80.34;101300.71;1799689;78;26377;-79
2023/01/06 10:24:37;;;;;;;23.90;11.57;;;;;;;2.95;80.16;101296.23;1818650;78;26157;-79
2023/01/06 10:27:08;;;;;;;22.10;12.55;;;;;;;2.95;79.97;101297.56;1820619;77;25812;-80
2023/01/06 10:29:37;;;;;;;14.07;8.55;;;;;;;2.96;80.04;101296.61;1777539;79;28291;-78
2023/01/06 10:32:08;;;;;;;9.13;7.47;;;;;;;2.99;80.16;101291.56;1824475;77;25737;-78
2023/01/06 10:34:34;;;;;;;;;;;;;;;3.01;80.31;101289.16;1815320;78;25897;-81
2023/01/06 10:37:12;;;;;;;7.92;6.15;;;;;;;3.05;80.29;101292.39;1819288;78;25889;-79
2023/01/06 10:39:42;;;;;;;7.75;6.03;;;;;;;3.05;80.32;101281.81;1807673;78;25920;-79
2023/01/06 10:45:16;;;;;;;9.08;6.10;;;;;;;3.07;80.29;101280.73;1775163;79;25828;-79
2023/01/06 10:47:43;;;;;;;9.00;6.60;;;;;;;3.07;80.07;101269.30;1781136;79;25843;-78
2023/01/06 10:50:16;;;;;;;7.40;6.17;;;;;;;3.09;80.27;101269.53;1769919;79;25794;-80
2023/01/06 10:52:46;;;;;;;8.85;6.75;;;;;;;3.13;80.37;101259.53;1792811;77;25700;-80
2023/01/06 10:55:35;;;;;;;9.33;6.28;;;;;;;3.16;80.32;101258.45;1827962;77;27450;-79
2023/01/06 10:58:41;;;;;;;6.75;5.67;;;;;;;3.19;80.26;101253.74;1820826;78;26528;-81
2023/01/06 11:01:15;;;;;;;6.08;5.10;;;;;;;3.22;80.25;101246.05;1828084;78;25819;-80
2023/01/06 11:03:43;;;;;;;7.30;5.30;;;;;;;3.23;80.23;101237.15;1732333;80;26654;-79
2023/01/06 11:06:30;;;;;;;6.10;5.50;;;;;;;3.23;81.41;101239.29;1746762;80;25968;-79
2023/01/06 11:08:57;;;;;;;8.43;5.58;;;;;;;3.34;81.69;101235.30;1778686;79;27431;-80
2023/01/06 11:11:24;;;;;;;8.38;6.30;;;;;;;3.37;80.77;101248.77;1787432;79;25294;-80
2023/01/06 11:13:54;;;;;;;5.95;5.33;;;;;;;3.37;80.26;101239.03;1782950;79;25722;-78
2023/01/06 11:16:34;;;;;;;6.17;5.58;;;;;;;3.35;79.93;101238.31;1793295;79;25753;-79
2023/01/06 11:19:07;;;;;;;7.65;6.85;;;;;;;3.35;80.00;101231.70;1830502;77;25943;-79
2023/01/06 11:21:44;;;;;;;5.85;5.25;;;;;;;3.34;79.86;101228.67;1801380;78;28639;-78
2023/01/06 11:24:24;;;;;;;7.67;5.45;;;;;;;3.32;79.83;101212.55;1821135;78;26288;-80
2023/01/06 11:26:57;;;;;;;8.35;6.45;;;;;;;3.32;80.00;101216.52;1778572;79;25989;-79
2023/01/06 11:29:31;;;;;;;7.37;6.45;;;;;;;3.30;80.12;101214.01;1783743;80;25785;-80
2023/01/06 11:32:06;;;;;;;9.35;6.85;;;;;;;3.33;80.05;101210.27;1781023;79;25987;-79
2023/01/06 11:34:33;;;;;;;11.00;6.97;;;;;;;3.35;80.05;101209.66;1766807;79;27467;-79
2023/01/06 11:36:59;;;;;;;9.78;6.58;;;;;;;3.32;79.88;101215.20;1783959;79;25810;-80
2023/01/06 11:39:35;;;;;;;8.25;7.42;;;;;;;3.32;79.95;101223.14;1768759;79;25822;-81
2023/01/06 11:42:12;;;;;;;20.15;13.60;;;;;;;3.31;79.95;101219.67;1785336;79;26391;-79
2023/01/06 11:44:41;;;;;;;13.53;9.93;;;;;;;3.30;79.86;101216.66;1785433;79;25836;-80
2023/01/06 11:47:18;;;;;;;12.73;8.55;;;;;;;3.26;79.77;101217.88;1787320;79;27433;-79
2023/01/06 11:49:59;;;;;;;10.38;7.62;;;;;;;3.25;79.92;101224.13;1786826;79;25876;-80
2023/01/06 11:52:31;;;;;;;10.53;7.80;;;;;;;3.28;80.11;101220.39;1787755;79;25877;-80
2023/01/06 11:55:12;;;;;;;17.60;14.15;;;;;;;3.28;80.23;101203.18;1761163;79;26548;-78
2023/01/06 11:57:59;;;;;;;27.73;20.95;;;;;;;3.29;80.35;101204.40;1781146;79;25940;-80
2023/01/06 12:00:47;;;;;;;17.57;10.05;;;;;;;3.30;80.22;101197.27;1765679;79;27472;-77